Mead, Oklahoma
Current Conditions -  °F | °C
As of 8:35 AM on Thursday 23 Oct 2014 (Local Time) from KDUA Reporting Station
Overcast Overcast  
Wind Chill: 57°   Ceiling: 9000
Heat Index: 57°   Visibility: 10mi
Dew Point: 55°   Wind: 6mph
Humidity: 94%   Direction: 120°ESE
Pressure: 30.16"   Gusts: NA
Location:  34°N, 96.51°W
Report Text: KDUA 231335Z AUTO 12005KT 10SM SCT075 OVC090 14/13 A3016 RMK AO2
Loading
Personal Weather Stations






























Interactive Weather Map
Tropical Storm Tracking
New forecast layout! Learn more

10-Day Weather Forecast

Advertisements
Track Severe Weather on mobile